Time,TemperatureF,DewpointF,PressureIn,WindDirection,WindDirectionDegrees,WindSpeedMPH,WindSpeedGustMPH,Humidity,HourlyPrecipIn,Conditions,Clouds,dailyrainin,SoftwareType,DateUTC
2013-04-27 00:02:00,50.0,42.0,-100.00,SSE,160,0.0,1.0,75,-99.99,,,-99.99,,2013-04-27 05:02:00,
2013-04-27 00:12:00,50.0,42.0,-100.00,SSE,160,0.0,1.0,75,-99.99,,,-99.99,,2013-04-27 05:12:00,
2013-04-27 00:32:00,48.0,41.0,-100.00,SE,135,3.0,4.0,77,-99.99,,,-99.99,,2013-04-27 05:32:00,
2013-04-27 00:42:00,48.0,41.0,-100.00,SE,135,3.0,4.0,77,-99.99,,,-99.99,,2013-04-27 05:42:00,
2013-04-27 00:52:00,48.0,41.0,-100.00,SE,135,3.0,4.0,77,-99.99,,,-99.99,,2013-04-27 05:52:00,
2013-04-27 01:02:00,48.0,41.0,-100.00,SE,135,3.0,4.0,77,-99.99,,,-99.99,,2013-04-27 06:02:00,
2013-04-27 01:12:00,48.0,41.0,-100.00,SE,135,3.0,4.0,77,-99.99,,,-99.99,,2013-04-27 06:12:00,
2013-04-27 01:32:00,46.0,41.0,-100.00,SE,140,1.0,4.0,83,-99.99,,,-99.99,,2013-04-27 06:32:00,
2013-04-27 01:42:00,46.0,41.0,-100.00,SE,140,1.0,4.0,83,-99.99,,,-99.99,,2013-04-27 06:42:00,
2013-04-27 01:52:00,46.0,41.0,-100.00,SE,140,1.0,4.0,83,-99.99,,,-99.99,,2013-04-27 06:52:00,
2013-04-27 02:01:00,46.0,41.0,-100.00,SE,140,1.0,4.0,83,-99.99,,,-99.99,,2013-04-27 07:01:00,
2013-04-27 02:11:00,46.0,41.0,-100.00,SE,140,1.0,4.0,83,-99.99,,,-99.99,,2013-04-27 07:11:00,
2013-04-27 02:32:00,44.0,41.0,-100.00,East,90,0.0,1.0,91,-99.99,,,-99.99,,2013-04-27 07:32:00,
2013-04-27 02:42:00,44.0,41.0,-100.00,East,90,0.0,1.0,91,-99.99,,,-99.99,,2013-04-27 07:42:00,
2013-04-27 02:52:00,44.0,41.0,-100.00,East,90,0.0,1.0,91,-99.99,,,-99.99,,2013-04-27 07:52:00,
2013-04-27 03:01:00,44.0,41.0,-100.00,East,90,0.0,1.0,91,-99.99,,,-99.99,,2013-04-27 08:01:00,
2013-04-27 03:11:00,44.0,41.0,-100.00,East,90,0.0,1.0,91,-99.99,,,-99.99,,2013-04-27 08:11:00,
2013-04-27 03:33:00,42.0,40.0,-100.00,ESE,105,0.0,1.0,95,-99.99,,,-99.99,,2013-04-27 08:33:00,
2013-04-27 03:42:00,42.0,40.0,-100.00,ESE,105,0.0,1.0,95,-99.99,,,-99.99,,2013-04-27 08:42:00,
2013-04-27 03:52:00,42.0,40.0,-100.00,ESE,105,0.0,1.0,95,-99.99,,,-99.99,,2013-04-27 08:52:00,
2013-04-27 04:01:00,42.0,40.0,-100.00,ESE,105,0.0,1.0,95,-99.99,,,-99.99,,2013-04-27 09:01:00,
2013-04-27 04:11:00,42.0,40.0,-100.00,ESE,105,0.0,1.0,95,-99.99,,,-99.99,,2013-04-27 09:11:00,
2013-04-27 04:33:00,40.0,39.0,-100.00,East,95,0.0,3.0,97,-99.99,,,-99.99,,2013-04-27 09:33:00,
2013-04-27 04:43:00,40.0,39.0,-100.00,East,95,0.0,3.0,97,-99.99,,,-99.99,,2013-04-27 09:43:00,
2013-04-27 04:53:00,40.0,39.0,-100.00,East,95,0.0,3.0,97,-99.99,,,-99.99,,2013-04-27 09:53:00,
2013-04-27 05:02:00,40.0,39.0,-100.00,East,95,0.0,3.0,97,-99.99,,,-99.99,,2013-04-27 10:02:00,
2013-04-27 05:12:00,40.0,39.0,-100.00,East,95,0.0,3.0,97,-99.99,,,-99.99,,2013-04-27 10:12:00,
2013-04-27 05:33:00,39.0,38.0,-100.00,SE,145,1.0,2.0,98,-99.99,,,-99.99,,2013-04-27 10:33:00,
2013-04-27 05:42:00,39.0,38.0,-100.00,SE,145,1.0,2.0,98,-99.99,,,-99.99,,2013-04-27 10:42:00,
2013-04-27 05:52:00,39.0,38.0,-100.00,SE,145,1.0,2.0,98,-99.99,,,-99.99,,2013-04-27 10:52:00,
2013-04-27 06:02:00,39.0,38.0,-100.00,SE,145,1.0,2.0,98,-99.99,,,-99.99,,2013-04-27 11:02:00,
2013-04-27 06:11:00,39.0,38.0,-100.00,SE,145,1.0,2.0,98,-99.99,,,-99.99,,2013-04-27 11:11:00,
2013-04-27 06:32:00,38.0,38.0,-100.00,SE,130,2.0,3.0,99,-99.99,,,-99.99,,2013-04-27 11:32:00,
2013-04-27 06:42:00,38.0,38.0,-100.00,SE,130,2.0,3.0,99,-99.99,,,-99.99,,2013-04-27 11:42:00,
2013-04-27 06:52:00,38.0,38.0,-100.00,SE,130,2.0,3.0,99,-99.99,,,-99.99,,2013-04-27 11:52:00,
2013-04-27 07:01:00,38.0,38.0,-100.00,SE,130,2.0,3.0,99,-99.99,,,-99.99,,2013-04-27 12:01:00,
2013-04-27 07:11:00,38.0,38.0,-100.00,SE,130,2.0,3.0,99,-99.99,,,-99.99,,2013-04-27 12:11:00,
2013-04-27 07:32:00,44.0,44.0,-100.00,ESE,110,1.0,3.0,99,-99.99,,,-99.99,,2013-04-27 12:32:00,
2013-04-27 07:42:00,44.0,44.0,-100.00,ESE,110,1.0,3.0,99,-99.99,,,-99.99,,2013-04-27 12:42:00,
2013-04-27 07:52:00,44.0,44.0,-100.00,ESE,110,1.0,3.0,99,-99.99,,,-99.99,,2013-04-27 12:52:00,
2013-04-27 08:02:00,44.0,44.0,-100.00,ESE,110,1.0,3.0,99,-99.99,,,-99.99,,2013-04-27 13:02:00,
2013-04-27 08:11:00,44.0,44.0,-100.00,ESE,110,1.0,3.0,99,-99.99,,,-99.99,,2013-04-27 13:11:00,
2013-04-27 08:32:00,52.0,48.0,-100.00,SSW,195,7.0,10.0,87,-99.99,,,-99.99,,2013-04-27 13:32:00,
2013-04-27 08:42:00,52.0,48.0,-100.00,SSW,195,7.0,10.0,87,-99.99,,,-99.99,,2013-04-27 13:42:00,
2013-04-27 08:52:00,52.0,48.0,-100.00,SSW,195,7.0,10.0,87,-99.99,,,-99.99,,2013-04-27 13:52:00,
2013-04-27 09:02:00,52.0,48.0,-100.00,SSW,195,7.0,10.0,87,-99.99,,,-99.99,,2013-04-27 14:02:00,
2013-04-27 09:11:00,52.0,48.0,-100.00,SSW,195,7.0,10.0,87,-99.99,,,-99.99,,2013-04-27 14:11:00,
2013-04-27 09:32:00,57.0,47.0,-100.00,SW,215,3.0,11.0,69,-99.99,,,-99.99,,2013-04-27 14:32:00,
2013-04-27 09:42:00,57.0,47.0,-100.00,SW,215,3.0,11.0,69,-99.99,,,-99.99,,2013-04-27 14:42:00,
2013-04-27 09:52:00,57.0,47.0,-100.00,SW,215,3.0,11.0,69,-99.99,,,-99.99,,2013-04-27 14:52:00,
2013-04-27 10:01:00,57.0,47.0,-100.00,SW,215,3.0,11.0,69,-99.99,,,-99.99,,2013-04-27 15:01:00,
2013-04-27 10:11:00,57.0,47.0,-100.00,SW,215,3.0,11.0,69,-99.99,,,-99.99,,2013-04-27 15:11:00,
2013-04-27 10:33:00,62.0,47.0,-100.00,SSW,200,6.0,9.0,58,-99.99,,,-99.99,,2013-04-27 15:33:00,
2013-04-27 10:43:00,62.0,47.0,-100.00,SSW,200,6.0,9.0,58,-99.99,,,-99.99,,2013-04-27 15:43:00,
2013-04-27 10:53:00,62.0,47.0,-100.00,SSW,200,6.0,9.0,58,-99.99,,,-99.99,,2013-04-27 15:53:00,
2013-04-27 11:03:00,62.0,47.0,-100.00,SSW,200,6.0,9.0,58,-99.99,,,-99.99,,2013-04-27 16:03:00,
2013-04-27 11:13:00,62.0,47.0,-100.00,SSW,200,6.0,9.0,58,-99.99,,,-99.99,,2013-04-27 16:13:00,
2013-04-27 11:33:00,67.0,46.0,-100.00,WSW,255,6.0,10.0,48,-99.99,,,-99.99,,2013-04-27 16:33:00,
2013-04-27 11:42:00,67.0,46.0,-100.00,WSW,255,6.0,10.0,48,-99.99,,,-99.99,,2013-04-27 16:42:00,
2013-04-27 11:53:00,67.0,46.0,-100.00,WSW,255,6.0,10.0,48,-99.99,,,-99.99,,2013-04-27 16:53:00,
2013-04-27 12:02:00,67.0,46.0,-100.00,WSW,255,6.0,10.0,48,-99.99,,,-99.99,,2013-04-27 17:02:00,
2013-04-27 12:11:00,67.0,46.0,-100.00,WSW,255,6.0,10.0,48,-99.99,,,-99.99,,2013-04-27 17:11:00,
2013-04-27 12:32:00,67.0,45.0,-100.00,South,170,3.0,14.0,46,-99.99,,,-99.99,,2013-04-27 17:32:00,
2013-04-27 12:42:00,67.0,45.0,-100.00,South,170,3.0,14.0,46,-99.99,,,-99.99,,2013-04-27 17:42:00,
2013-04-27 12:53:00,67.0,45.0,-100.00,South,170,3.0,14.0,46,-99.99,,,-99.99,,2013-04-27 17:53:00,
2013-04-27 13:02:00,67.0,45.0,-100.00,South,170,3.0,14.0,46,-99.99,,,-99.99,,2013-04-27 18:02:00,
2013-04-27 13:11:00,67.0,45.0,-100.00,South,170,3.0,14.0,46,-99.99,,,-99.99,,2013-04-27 18:11:00,
2013-04-27 14:32:00,70.0,45.0,-100.00,WSW,240,4.0,14.0,41,-99.99,,,-99.99,,2013-04-27 19:32:00,
2013-04-27 14:42:00,70.0,45.0,-100.00,WSW,240,4.0,14.0,41,-99.99,,,-99.99,,2013-04-27 19:42:00,
2013-04-27 14:53:00,70.0,45.0,-100.00,WSW,240,4.0,14.0,41,-99.99,,,-99.99,,2013-04-27 19:53:00,
2013-04-27 15:02:00,70.0,45.0,-100.00,WSW,240,4.0,14.0,41,-99.99,,,-99.99,,2013-04-27 20:02:00,
2013-04-27 15:11:00,70.0,45.0,-100.00,WSW,240,4.0,14.0,41,-99.99,,,-99.99,,2013-04-27 20:11:00,
2013-04-27 15:32:00,72.0,45.0,-100.00,South,190,12.0,20.0,38,-99.99,,,-99.99,,2013-04-27 20:32:00,
2013-04-27 15:42:00,72.0,45.0,-100.00,South,190,12.0,20.0,38,-99.99,,,-99.99,,2013-04-27 20:42:00,
2013-04-27 15:52:00,72.0,45.0,-100.00,South,190,12.0,20.0,38,-99.99,,,-99.99,,2013-04-27 20:52:00,
2013-04-27 16:02:00,72.0,45.0,-100.00,South,190,12.0,20.0,38,-99.99,,,-99.99,,2013-04-27 21:02:00,
2013-04-27 16:11:00,72.0,45.0,-100.00,South,190,12.0,20.0,38,-99.99,,,-99.99,,2013-04-27 21:11:00,
2013-04-27 16:33:00,72.0,44.0,-100.00,South,185,11.0,17.0,36,-99.99,,,-99.99,,2013-04-27 21:33:00,
2013-04-27 16:43:00,72.0,44.0,-100.00,South,185,11.0,17.0,36,-99.99,,,-99.99,,2013-04-27 21:43:00,
2013-04-27 16:53:00,72.0,44.0,-100.00,South,185,11.0,17.0,36,-99.99,,,-99.99,,2013-04-27 21:53:00,
2013-04-27 17:02:00,72.0,44.0,-100.00,South,185,11.0,17.0,36,-99.99,,,-99.99,,2013-04-27 22:02:00,
2013-04-27 17:12:00,72.0,44.0,-100.00,South,185,11.0,17.0,36,-99.99,,,-99.99,,2013-04-27 22:12:00,
2013-04-27 17:32:00,71.0,44.0,-100.00,SW,220,9.0,20.0,38,-99.99,,,-99.99,,2013-04-27 22:32:00,
2013-04-27 17:42:00,71.0,44.0,-100.00,SW,220,9.0,20.0,38,-99.99,,,-99.99,,2013-04-27 22:42:00,
2013-04-27 17:52:00,71.0,44.0,-100.00,SW,220,9.0,20.0,38,-99.99,,,-99.99,,2013-04-27 22:52:00,
2013-04-27 18:02:00,71.0,44.0,-100.00,SW,220,9.0,20.0,38,-99.99,,,-99.99,,2013-04-27 23:02:00,
2013-04-27 18:11:00,71.0,44.0,-100.00,SW,220,9.0,20.0,38,-99.99,,,-99.99,,2013-04-27 23:11:00,
2013-04-27 18:32:00,70.0,44.0,-100.00,SSW,205,11.0,18.0,39,-99.99,,,-99.99,,2013-04-27 23:32:00,
2013-04-27 18:42:00,70.0,44.0,-100.00,SSW,205,11.0,18.0,39,-99.99,,,-99.99,,2013-04-27 23:42:00,
2013-04-27 18:52:00,70.0,44.0,-100.00,SSW,205,11.0,18.0,39,-99.99,,,-99.99,,2013-04-27 23:52:00,
2013-04-27 19:01:00,70.0,44.0,-100.00,SSW,205,11.0,18.0,39,-99.99,,,-99.99,,2013-04-28 00:01:00,
2013-04-27 19:11:00,70.0,44.0,-100.00,SSW,205,11.0,18.0,39,-99.99,,,-99.99,,2013-04-28 00:11:00,
2013-04-27 19:32:00,67.0,43.0,-100.00,SW,220,4.0,11.0,41,-99.99,,,-99.99,,2013-04-28 00:32:00,
2013-04-27 19:43:00,67.0,43.0,-100.00,SW,220,4.0,11.0,41,-99.99,,,-99.99,,2013-04-28 00:43:00,
2013-04-27 19:52:00,67.0,43.0,-100.00,SW,220,4.0,11.0,41,-99.99,,,-99.99,,2013-04-28 00:52:00,
2013-04-27 20:01:00,67.0,43.0,-100.00,SW,220,4.0,11.0,41,-99.99,,,-99.99,,2013-04-28 01:01:00,
2013-04-27 20:11:00,67.0,43.0,-100.00,SW,220,4.0,11.0,41,-99.99,,,-99.99,,2013-04-28 01:11:00,
2013-04-27 20:32:00,65.0,42.0,-100.00,SW,230,3.0,6.0,44,-99.99,,,-99.99,,2013-04-28 01:32:00,
2013-04-27 20:42:00,65.0,42.0,-100.00,SW,230,3.0,6.0,44,-99.99,,,-99.99,,2013-04-28 01:42:00,
2013-04-27 20:52:00,65.0,42.0,-100.00,SW,230,3.0,6.0,44,-99.99,,,-99.99,,2013-04-28 01:52:00,
2013-04-27 21:02:00,65.0,42.0,-100.00,SW,230,3.0,6.0,44,-99.99,,,-99.99,,2013-04-28 02:02:00,
2013-04-27 21:12:00,65.0,42.0,-100.00,SW,230,3.0,6.0,44,-99.99,,,-99.99,,2013-04-28 02:12:00,
2013-04-27 21:32:00,58.0,42.0,-100.00,South,180,4.0,5.0,55,-99.99,,,-99.99,,2013-04-28 02:32:00,
2013-04-27 21:42:00,58.0,42.0,-100.00,South,180,4.0,5.0,55,-99.99,,,-99.99,,2013-04-28 02:42:00,
2013-04-27 21:52:00,58.0,42.0,-100.00,South,180,4.0,5.0,55,-99.99,,,-99.99,,2013-04-28 02:52:00,
2013-04-27 22:01:00,58.0,42.0,-100.00,South,180,4.0,5.0,55,-99.99,,,-99.99,,2013-04-28 03:01:00,
2013-04-27 22:11:00,58.0,42.0,-100.00,South,180,4.0,5.0,55,-99.99,,,-99.99,,2013-04-28 03:11:00,
2013-04-27 22:33:00,58.0,44.0,-100.00,South,190,6.0,9.0,60,-99.99,,,-99.99,,2013-04-28 03:33:00,
2013-04-27 22:43:00,58.0,44.0,-100.00,South,190,6.0,9.0,60,-99.99,,,-99.99,,2013-04-28 03:43:00,
2013-04-27 22:53:00,58.0,44.0,-100.00,South,190,6.0,9.0,60,-99.99,,,-99.99,,2013-04-28 03:53:00,
2013-04-27 23:02:00,58.0,44.0,-100.00,South,190,6.0,9.0,60,-99.99,,,-99.99,,2013-04-28 04:02:00,
2013-04-27 23:13:00,58.0,44.0,-100.00,South,190,6.0,9.0,60,-99.99,,,-99.99,,2013-04-28 04:13:00,
2013-04-27 23:32:00,57.0,45.0,-100.00,South,190,5.0,11.0,63,-99.99,,,-99.99,,2013-04-28 04:32:00,
2013-04-27 23:43:00,57.0,45.0,-100.00,South,190,5.0,11.0,63,-99.99,,,-99.99,,2013-04-28 04:43:00,
2013-04-27 23:53:00,57.0,45.0,-100.00,South,190,5.0,11.0,63,-99.99,,,-99.99,,2013-04-28 04:53:00,